Paineville, Illinois
Current Conditions -  °F | °C
As of 11:55 AM on Thursday 23 Oct 2014 (Local Time) from KMWA Reporting Station
Broken Clouds Broken Clouds  
Wind Chill: 59°   Ceiling: 15000
Heat Index: 59°   Visibility: 20mi
Dew Point: 43°   Wind: 6mph
Humidity: 55%   Direction: 190°S
Pressure: 30.24"   Gusts: NA
Location:  37.8118°N, 89.0053°W
Report Text: KMWA 231655Z 19005KT 20SM BKN150 15/06 A3024
Loading
Personal Weather Stations






























Interactive Weather Map
Tropical Storm Tracking
New forecast layout! Learn more

10-Day Weather Forecast

Advertisements
Track Severe Weather on mobile